Mario Eduardo — CSVZ — position and weather

sailwx.info

Track history (hours):
 
Tides and Currents Weather Stations Pressure Air Temp Water Temp Dewpoint Dewpoint Depression Visibility Wind Speed Wind Dir Waves Ship Positions

Mario Eduardo

Last reported at 2017-Nov-19 23:58 UTC. Time now 2017-Nov-21 15:25 UTC.
Position N 36°57' W 008°19'.

Length 15 m.

Type: Fishing. MMSI: 263395000.

Date/timePositionNaut miles runAvg speedWind from/ knotsBaromVisibWave heightAir tempDewpointWater temp
2017-Nov-19 23:58N 36°57' W 008°19'1 2.4
2017-Nov-19 23:30N 36°57' W 008°18'2 4.2
2017-Nov-19 23:00N 36°58' W 008°16'1 1.5
2017-Nov-19 22:31N 36°59' W 008°15'1 2.4
2017-Nov-19 22:00N 36°59' W 008°13'1 2.5
2017-Nov-19 21:27N 36°58' W 008°12'1 2.4
2017-Nov-19 21:00N 36°57' W 008°11'1 2.0
2017-Nov-19 20:30N 36°57' W 008°10'1 2.3
2017-Nov-19 20:00N 36°57' W 008°11'1 2.4
2017-Nov-19 19:30N 36°58' W 008°13'1 2.4
2017-Nov-19 19:00N 36°58' W 008°14'1 2.1
2017-Nov-19 18:30N 36°58' W 008°15'1 2.0
2017-Nov-19 18:00N 36°59' W 008°14'1 2.4
2017-Nov-19 17:27N 36°59' W 008°13'  
Track history (hours):
 
Tides and Currents Weather Stations Pressure Air Temp Water Temp Dewpoint Dewpoint Depression Visibility Wind Speed Wind Dir Waves Ship Positions

Mario Eduardo

Last reported at 2017-Nov-19 23:58 UTC. Time now 2017-Nov-21 15:25 UTC.
Position N 36°57' W 008°19'.

Length 15 m.

Type: Fishing. MMSI: 263395000.

Date/timePositionNaut miles runAvg speedWind from/ knotsBaromVisibWave heightAir tempDewpointWater temp
2017-Nov-19 23:58N 36°57' W 008°19'1 2.4
2017-Nov-19 23:30N 36°57' W 008°18'2 4.2
2017-Nov-19 23:00N 36°58' W 008°16'1 1.5
2017-Nov-19 22:31N 36°59' W 008°15'1 2.4
2017-Nov-19 22:00N 36°59' W 008°13'1 2.5
2017-Nov-19 21:27N 36°58' W 008°12'1 2.4
2017-Nov-19 21:00N 36°57' W 008°11'1 2.0
2017-Nov-19 20:30N 36°57' W 008°10'1 2.3
2017-Nov-19 20:00N 36°57' W 008°11'1 2.4
2017-Nov-19 19:30N 36°58' W 008°13'1 2.4
2017-Nov-19 19:00N 36°58' W 008°14'1 2.1
2017-Nov-19 18:30N 36°58' W 008°15'1 2.0
2017-Nov-19 18:00N 36°59' W 008°14'1 2.4
2017-Nov-19 17:27N 36°59' W 008°13'  

Dump ship's entire track history